Time;durP1;ratioP1;P1;durP2;ratioP2;P2;SDS_P1;SDS_P2;PMS_P1;PMS_P2;Temp;Humidity;BMP_temperature;BMP_pressure;BME280_temperature;BME280_humidity;BME280_pressure;Samples;Min_cycle;Max_cycle;Signal;HPM_P1;HPM_P2
2023/08/24 00:00:54;;;;;;;4.60;3.73;;;;;;;;;;5078774;28;20178;-81
2023/08/24 00:03:22;;;;;;;3.50;3.20;;;;;;;;;;5095023;28;20185;-82
2023/08/24 00:05:48;;;;;;;4.23;3.40;;;;;;;;;;5095118;28;20170;-82
2023/08/24 00:08:15;;;;;;;3.77;3.47;;;;;;;;;;5090509;28;20185;-83
2023/08/24 00:10:43;;;;;;;3.63;3.33;;;;;;;;;;5078089;28;20199;-81
2023/08/24 00:13:09;;;;;;;3.30;3.00;;;;;;;;;;5096381;28;20258;-82
2023/08/24 00:15:36;;;;;;;4.73;4.33;;;;;;;;;;5100973;28;20176;-82
2023/08/24 00:18:02;;;;;;;4.20;3.53;;;;;;;;;;5100558;28;20181;-81
2023/08/24 00:20:28;;;;;;;3.90;3.50;;;;;;;;;;5106284;28;20182;-80
2023/08/24 00:22:54;;;;;;;5.60;3.50;;;;;;;;;;5095070;28;20180;-82
2023/08/24 00:25:20;;;;;;;3.50;3.20;;;;;;;;;;5093342;28;20184;-82
2023/08/24 00:27:46;;;;;;;4.30;3.50;;;;;;;;;;5098953;28;20228;-82
2023/08/24 00:30:13;;;;;;;3.73;3.43;;;;;;;;;;5099951;28;20224;-82
2023/08/24 00:32:39;;;;;;;3.67;3.37;;;;;;;;;;5094185;28;20181;-81
2023/08/24 00:35:06;;;;;;;4.20;3.60;;;;;;;;;;5092600;28;20173;-82
2023/08/24 00:37:32;;;;;;;4.00;3.70;;;;;;;;;;5092289;28;20177;-82
2023/08/24 00:40:09;;;;;;;4.53;3.50;;;;;;;;;;5090289;28;20181;-81
2023/08/24 00:42:43;;;;;;;4.07;3.77;;;;;;;;;;5097437;28;20269;-80
2023/08/24 00:45:10;;;;;;;4.47;4.03;;;;;;;;;;5093224;28;20223;-81
2023/08/24 00:47:37;;;;;;;3.80;3.50;;;;;;;;;;5089281;28;20242;-82
2023/08/24 00:50:03;;;;;;;4.20;3.73;;;;;;;;;;5093790;28;20196;-81
2023/08/24 00:52:31;;;;;;;3.80;3.50;;;;;;;;;;5091015;28;20176;-81
2023/08/24 00:54:58;;;;;;;3.60;3.30;;;;;;;;;;5088842;28;20180;-81
2023/08/24 00:57:24;;;;;;;4.40;3.43;;;;;;;;;;5095472;28;20186;-79
2023/08/24 00:59:50;;;;;;;4.10;3.70;;;;;;;;;;5090069;28;20185;-80
2023/08/24 01:02:16;;;;;;;3.93;3.50;;;;;;;;;;5096184;28;20591;-81
2023/08/24 01:04:42;;;;;;;3.80;3.40;;;;;;;;;;5097686;28;20186;-81
2023/08/24 01:07:09;;;;;;;4.50;4.10;;;;;;;;;;5088046;28;20177;-81
2023/08/24 01:09:36;;;;;;;4.07;3.20;;;;;;;;;;5085558;28;20179;-80
2023/08/24 01:12:11;;;;;;;4.27;3.80;;;;;;;;;;5083027;28;20173;-80
2023/08/24 01:14:51;;;;;;;4.43;3.50;;;;;;;;;;5097089;28;20175;-81
2023/08/24 01:17:21;;;;;;;5.60;3.70;;;;;;;;;;5102332;28;20179;-81
2023/08/24 01:19:48;;;;;;;4.00;3.70;;;;;;;;;;5093991;28;20168;-80
2023/08/24 01:22:33;;;;;;;5.53;4.30;;;;;;;;;;5099044;28;20185;-81
2023/08/24 01:25:09;;;;;;;4.43;4.03;;;;;;;;;;5102293;28;20192;-82
2023/08/24 01:27:36;;;;;;;3.33;3.07;;;;;;;;;;5084828;28;20220;-80
2023/08/24 01:30:05;;;;;;;4.43;4.03;;;;;;;;;;5090654;28;20216;-85
2023/08/24 01:32:32;;;;;;;4.33;3.50;;;;;;;;;;5094229;28;20632;-85
2023/08/24 01:34:59;;;;;;;6.97;4.10;;;;;;;;;;5093550;28;20210;-85
2023/08/24 01:37:25;;;;;;;3.60;3.30;;;;;;;;;;5097926;28;20644;-86
2023/08/24 01:40:11;;;;;;;4.37;3.93;;;;;;;;;;5094556;28;20538;-85
2023/08/24 01:42:44;;;;;;;4.20;3.80;;;;;;;;;;5087982;28;20279;-84
2023/08/24 01:45:10;;;;;;;4.00;3.70;;;;;;;;;;5095265;28;20198;-85
2023/08/24 01:47:38;;;;;;;3.73;3.10;;;;;;;;;;5099592;28;20168;-84
2023/08/24 01:50:04;;;;;;;3.83;3.43;;;;;;;;;;5100887;28;20219;-84
2023/08/24 01:52:30;;;;;;;3.43;3.20;;;;;;;;;;5096484;28;20197;-84
2023/08/24 01:54:56;;;;;;;3.93;3.63;;;;;;;;;;5095315;28;20195;-84
2023/08/24 01:57:23;;;;;;;3.57;3.27;;;;;;;;;;5092677;28;20184;-84
2023/08/24 01:59:49;;;;;;;4.07;3.67;;;;;;;;;;5095512;28;20214;-84
2023/08/24 02:02:15;;;;;;;3.47;3.17;;;;;;;;;;5099206;28;20649;-84
2023/08/24 02:04:41;;;;;;;3.97;3.57;;;;;;;;;;5092767;28;20176;-85
2023/08/24 02:07:07;;;;;;;4.60;4.10;;;;;;;;;;5093916;28;20179;-84
2023/08/24 02:09:33;;;;;;;4.13;3.70;;;;;;;;;;5091600;28;20248;-83
2023/08/24 02:11:59;;;;;;;5.40;4.13;;;;;;;;;;5097024;28;20226;-83
2023/08/24 02:14:25;;;;;;;3.93;3.63;;;;;;;;;;5099409;28;20181;-83
2023/08/24 02:16:51;;;;;;;5.27;4.07;;;;;;;;;;5093081;28;20666;-84
2023/08/24 02:19:17;;;;;;;4.13;3.73;;;;;;;;;;5093144;28;20183;-85
2023/08/24 02:21:43;;;;;;;3.87;3.57;;;;;;;;;;5100435;28;20176;-84
2023/08/24 02:24:09;;;;;;;4.33;3.60;;;;;;;;;;5087257;28;20180;-85
2023/08/24 02:26:35;;;;;;;3.90;3.60;;;;;;;;;;5099542;28;20187;-84
2023/08/24 02:29:01;;;;;;;4.47;3.87;;;;;;;;;;5094986;28;20199;-83
2023/08/24 02:31:28;;;;;;;4.30;3.90;;;;;;;;;;5096129;28;20196;-85
2023/08/24 02:33:54;;;;;;;3.80;3.43;;;;;;;;;;5095609;28;20187;-85
2023/08/24 02:36:20;;;;;;;7.50;3.83;;;;;;;;;;5098117;28;20168;-84
2023/08/24 02:38:47;;;;;;;3.60;3.30;;;;;;;;;;5069612;28;20177;-84
2023/08/24 02:41:14;;;;;;;6.93;3.63;;;;;;;;;;5095678;28;20435;-84
2023/08/24 02:43:40;;;;;;;4.20;3.80;;;;;;;;;;5093518;28;20263;-83
2023/08/24 02:46:08;;;;;;;4.23;3.90;;;;;;;;;;5091708;28;20178;-83
2023/08/24 02:48:34;;;;;;;4.73;3.93;;;;;;;;;;5100365;28;20176;-84
2023/08/24 02:51:02;;;;;;;3.97;3.57;;;;;;;;;;5084991;28;20200;-83
2023/08/24 02:53:28;;;;;;;4.90;4.20;;;;;;;;;;5098950;28;20199;-83
2023/08/24 02:55:55;;;;;;;5.60;3.80;;;;;;;;;;5097501;28;20163;-84
2023/08/24 02:58:21;;;;;;;3.97;3.60;;;;;;;;;;5096160;28;20603;-84
2023/08/24 03:00:47;;;;;;;3.47;3.17;;;;;;;;;;5095916;28;20229;-83
2023/08/24 03:03:16;;;;;;;5.17;4.77;;;;;;;;;;5099846;28;20221;-84
2023/08/24 03:05:53;;;;;;;3.70;3.40;;;;;;;;;;5100386;28;20627;-84
2023/08/24 03:08:19;;;;;;;5.53;3.90;;;;;;;;;;5101988;28;20186;-83
2023/08/24 03:10:46;;;;;;;4.63;3.83;;;;;;;;;;5102064;28;20207;-84
2023/08/24 03:13:12;;;;;;;4.33;3.93;;;;;;;;;;5096870;28;20188;-85
2023/08/24 03:15:38;;;;;;;4.27;3.77;;;;;;;;;;5102959;28;20185;-84
2023/08/24 03:18:04;;;;;;;5.57;4.00;;;;;;;;;;5096706;28;20172;-81
2023/08/24 03:20:30;;;;;;;4.03;3.73;;;;;;;;;;5102079;28;20199;-81
2023/08/24 03:22:57;;;;;;;4.60;4.20;;;;;;;;;;5100065;28;20688;-81
2023/08/24 03:25:23;;;;;;;4.00;3.70;;;;;;;;;;5099768;28;20195;-82
2023/08/24 03:27:50;;;;;;;3.90;3.60;;;;;;;;;;5102091;28;20214;-82
2023/08/24 03:30:16;;;;;;;4.57;3.73;;;;;;;;;;5101200;28;20288;-81
2023/08/24 03:32:42;;;;;;;4.20;3.87;;;;;;;;;;5099061;28;20176;-81
2023/08/24 03:35:09;;;;;;;6.13;4.17;;;;;;;;;;5103556;28;20264;-82
2023/08/24 03:37:35;;;;;;;3.87;3.57;;;;;;;;;;5089439;28;20192;-81
2023/08/24 03:40:01;;;;;;;4.17;3.77;;;;;;;;;;5105088;28;20271;-81
2023/08/24 03:42:27;;;;;;;5.10;3.97;;;;;;;;;;5099923;28;20152;-81
2023/08/24 03:44:53;;;;;;;4.47;4.07;;;;;;;;;;5106181;28;20202;-82
2023/08/24 03:47:19;;;;;;;4.73;3.83;;;;;;;;;;5101340;28;20197;-82
2023/08/24 03:49:45;;;;;;;4.03;3.70;;;;;;;;;;5093104;28;20184;-82
2023/08/24 03:52:11;;;;;;;3.80;3.50;;;;;;;;;;5100162;28;20206;-82
2023/08/24 03:54:37;;;;;;;3.87;3.57;;;;;;;;;;5095947;28;20191;-83
2023/08/24 03:57:03;;;;;;;4.13;3.73;;;;;;;;;;5099426;28;20262;-81
2023/08/24 03:59:29;;;;;;;4.43;4.00;;;;;;;;;;5104631;28;20566;-80
2023/08/24 04:01:55;;;;;;;5.17;3.70;;;;;;;;;;5096890;28;20239;-81
2023/08/24 04:04:21;;;;;;;3.80;3.40;;;;;;;;;;5103561;28;20798;-82
2023/08/24 04:06:49;;;;;;;4.90;3.57;;;;;;;;;;5102704;28;20180;-83
2023/08/24 04:09:15;;;;;;;4.63;4.23;;;;;;;;;;5100469;28;20587;-81
2023/08/24 04:11:41;;;;;;;3.63;3.33;;;;;;;;;;5093010;28;20536;-81
2023/08/24 04:14:07;;;;;;;4.47;4.07;;;;;;;;;;5100074;28;20205;-81
2023/08/24 04:16:33;;;;;;;4.83;3.63;;;;;;;;;;5100710;28;20179;-82
2023/08/24 04:18:59;;;;;;;3.70;3.40;;;;;;;;;;5100870;28;20202;-81
2023/08/24 04:21:25;;;;;;;5.10;4.13;;;;;;;;;;5098921;28;20270;-81
2023/08/24 04:23:51;;;;;;;3.70;3.40;;;;;;;;;;5101859;28;21015;-82
2023/08/24 04:26:17;;;;;;;4.07;3.70;;;;;;;;;;5098908;28;20178;-81
2023/08/24 04:28:43;;;;;;;4.10;3.70;;;;;;;;;;5079164;28;20202;-83
2023/08/24 04:31:10;;;;;;;4.73;4.33;;;;;;;;;;5091908;28;20264;-83
2023/08/24 04:33:36;;;;;;;4.17;3.87;;;;;;;;;;5095163;28;20553;-83
2023/08/24 04:36:05;;;;;;;5.80;3.83;;;;;;;;;;5095560;28;20163;-83
2023/08/24 04:38:31;;;;;;;5.10;3.63;;;;;;;;;;5089581;28;20181;-83
2023/08/24 04:40:57;;;;;;;5.00;4.17;;;;;;;;;;5089801;28;20190;-84
2023/08/24 04:43:27;;;;;;;4.20;3.90;;;;;;;;;;5088598;28;20183;-83
2023/08/24 04:45:54;;;;;;;4.50;4.10;;;;;;;;;;5095724;28;20180;-83
2023/08/24 04:48:21;;;;;;;4.73;4.30;;;;;;;;;;5090104;28;20186;-83
2023/08/24 04:50:48;;;;;;;5.20;4.70;;;;;;;;;;5078085;28;20262;-84
2023/08/24 04:53:15;;;;;;;5.20;4.37;;;;;;;;;;5095123;28;20182;-85
2023/08/24 04:55:41;;;;;;;6.17;4.70;;;;;;;;;;5092169;28;20179;-86
2023/08/24 04:58:10;;;;;;;6.60;4.33;;;;;;;;;;5074479;28;20168;-87
2023/08/24 05:00:37;;;;;;;5.73;4.40;;;;;;;;;;5093909;28;20189;-84
2023/08/24 05:03:04;;;;;;;5.67;4.37;;;;;;;;;;5097702;28;20210;-89
2023/08/24 05:05:31;;;;;;;6.43;4.67;;;;;;;;;;5094004;28;20177;-85
2023/08/24 05:07:57;;;;;;;4.93;4.20;;;;;;;;;;5094968;28;20267;-84
2023/08/24 05:10:23;;;;;;;4.63;4.23;;;;;;;;;;5094464;28;20272;-85
2023/08/24 05:12:49;;;;;;;5.30;4.00;;;;;;;;;;5094066;28;20737;-84
2023/08/24 05:15:15;;;;;;;5.97;4.40;;;;;;;;;;5097845;28;20174;-84
2023/08/24 05:17:41;;;;;;;8.67;4.00;;;;;;;;;;5098378;28;20169;-84
2023/08/24 05:20:10;;;;;;;7.47;4.60;;;;;;;;;;5074789;28;20170;-83
2023/08/24 05:22:36;;;;;;;6.90;4.47;;;;;;;;;;5098743;28;20182;-84
2023/08/24 05:25:02;;;;;;;4.80;4.30;;;;;;;;;;5095300;28;20993;-83
2023/08/24 05:27:28;;;;;;;5.13;4.30;;;;;;;;;;5099329;28;20185;-84
2023/08/24 05:29:54;;;;;;;4.90;4.10;;;;;;;;;;5087716;28;20209;-84
2023/08/24 05:32:20;;;;;;;5.20;4.70;;;;;;;;;;5093906;28;20778;-88
2023/08/24 05:34:46;;;;;;;5.83;4.30;;;;;;;;;;5097032;28;20214;-89
2023/08/24 05:37:12;;;;;;;5.87;4.77;;;;;;;;;;5097131;28;20829;-87
2023/08/24 05:39:39;;;;;;;5.80;4.73;;;;;;;;;;5097593;28;20564;-88
2023/08/24 05:42:05;;;;;;;5.53;4.27;;;;;;;;;;5100254;28;20227;-86
2023/08/24 05:44:31;;;;;;;9.63;5.87;;;;;;;;;;5085567;28;20184;-90
2023/08/24 05:46:57;;;;;;;8.77;5.97;;;;;;;;;;5104668;28;20244;-88
2023/08/24 05:49:24;;;;;;;9.07;5.37;;;;;;;;;;5100879;28;20177;-90
2023/08/24 05:51:51;;;;;;;8.17;5.97;;;;;;;;;;5107240;28;20211;-90
2023/08/24 05:54:20;;;;;;;7.00;5.97;;;;;;;;;;5094339;28;20161;-90
2023/08/24 05:56:47;;;;;;;7.20;5.87;;;;;;;;;;5096646;28;20170;-90
2023/08/24 05:59:14;;;;;;;8.40;5.90;;;;;;;;;;5083405;28;20187;-89
2023/08/24 06:01:41;;;;;;;10.07;7.23;;;;;;;;;;5083644;28;20244;-89
2023/08/24 06:04:09;;;;;;;8.97;5.07;;;;;;;;;;5090876;28;20173;-86
2023/08/24 06:06:38;;;;;;;7.27;5.43;;;;;;;;;;5085327;28;20191;-86
2023/08/24 06:09:04;;;;;;;5.97;5.37;;;;;;;;;;5098042;28;20574;-88
2023/08/24 06:11:37;;;;;;;6.23;5.63;;;;;;;;;;5104990;28;20232;-90
2023/08/24 06:14:03;;;;;;;6.20;5.43;;;;;;;;;;5082065;28;20176;-89
2023/08/24 06:16:29;;;;;;;6.43;5.80;;;;;;;;;;5097320;28;20184;-90
2023/08/24 06:18:55;;;;;;;7.53;5.80;;;;;;;;;;5081738;28;20183;-86
2023/08/24 06:21:31;;;;;;;6.43;5.20;;;;;;;;;;5088756;28;20196;-89
2023/08/24 06:23:57;;;;;;;6.57;5.90;;;;;;;;;;5098917;28;20217;-85
2023/08/24 06:26:25;;;;;;;6.40;5.80;;;;;;;;;;5101650;28;20189;-88
2023/08/24 06:28:51;;;;;;;8.77;5.90;;;;;;;;;;5103024;28;20195;-87
2023/08/24 06:31:17;;;;;;;8.93;6.73;;;;;;;;;;5093924;28;20196;-84
2023/08/24 06:33:43;;;;;;;6.67;5.63;;;;;;;;;;5099461;28;20185;-90
2023/08/24 06:36:12;;;;;;;9.67;5.87;;;;;;;;;;5092600;28;20261;-87
2023/08/24 06:38:38;;;;;;;6.30;5.20;;;;;;;;;;5100622;28;20176;-88
2023/08/24 06:41:04;;;;;;;6.77;4.83;;;;;;;;;;5096402;28;20184;-89
2023/08/24 06:43:30;;;;;;;6.57;5.97;;;;;;;;;;5098170;28;20178;-88
2023/08/24 06:45:56;;;;;;;8.93;6.20;;;;;;;;;;5084967;28;20191;-88
2023/08/24 06:48:23;;;;;;;9.10;5.17;;;;;;;;;;5098124;28;20655;-87
2023/08/24 06:50:51;;;;;;;9.90;5.13;;;;;;;;;;5094798;28;20196;-88
2023/08/24 06:53:17;;;;;;;7.43;4.87;;;;;;;;;;5085677;28;20184;-88
2023/08/24 06:55:43;;;;;;;8.53;5.57;;;;;;;;;;5099140;28;20645;-88
2023/08/24 06:58:10;;;;;;;6.27;4.97;;;;;;;;;;5106085;28;20183;-89
2023/08/24 07:00:36;;;;;;;6.37;4.33;;;;;;;;;;5099515;28;20206;-84
2023/08/24 07:03:02;;;;;;;6.77;5.33;;;;;;;;;;5099369;28;20180;-88
2023/08/24 07:05:28;;;;;;;7.20;4.77;;;;;;;;;;5078821;28;20188;-88
2023/08/24 07:07:54;;;;;;;5.80;4.67;;;;;;;;;;5101972;28;20178;-87
2023/08/24 07:10:21;;;;;;;7.53;5.13;;;;;;;;;;5081755;28;20204;-89
2023/08/24 07:12:47;;;;;;;7.37;5.87;;;;;;;;;;5086909;28;20189;-88
2023/08/24 07:15:13;;;;;;;6.17;5.07;;;;;;;;;;5097570;28;20157;-88
2023/08/24 07:17:40;;;;;;;6.90;6.03;;;;;;;;;;5081538;28;20178;-88
2023/08/24 07:20:08;;;;;;;7.87;6.27;;;;;;;;;;5105499;28;20188;-89
2023/08/24 07:22:34;;;;;;;5.90;5.30;;;;;;;;;;5101284;28;20180;-88
2023/08/24 07:25:01;;;;;;;7.17;5.80;;;;;;;;;;5081499;28;20190;-89
2023/08/24 07:27:30;;;;;;;10.10;6.43;;;;;;;;;;5101937;28;20212;-88
2023/08/24 07:29:56;;;;;;;7.73;6.17;;;;;;;;;;5098934;28;20298;-88
2023/08/24 07:32:23;;;;;;;7.50;5.77;;;;;;;;;;5078378;28;20623;-87
2023/08/24 07:34:49;;;;;;;24.43;5.80;;;;;;;;;;5082187;28;20205;-88
2023/08/24 07:37:15;;;;;;;7.97;5.80;;;;;;;;;;5101056;28;20181;-90
2023/08/24 07:39:41;;;;;;;7.17;4.90;;;;;;;;;;5081700;28;20188;-88
2023/08/24 07:42:09;;;;;;;6.50;5.33;;;;;;;;;;5102812;28;20158;-87
2023/08/24 07:44:36;;;;;;;8.47;4.63;;;;;;;;;;5100235;28;20556;-88
2023/08/24 07:47:04;;;;;;;6.93;4.50;;;;;;;;;;5074945;28;20188;-89
2023/08/24 07:49:30;;;;;;;6.53;4.57;;;;;;;;;;5086338;28;20198;-90
2023/08/24 07:51:57;;;;;;;4.97;4.37;;;;;;;;;;5109841;28;20203;-91
2023/08/24 07:54:26;;;;;;;6.17;4.73;;;;;;;;;;5089012;28;20192;-90
2023/08/24 07:56:52;;;;;;;7.23;4.77;;;;;;;;;;5105862;28;20182;-90
2023/08/24 07:59:18;;;;;;;5.67;4.67;;;;;;;;;;5110410;28;20164;-90
2023/08/24 08:01:44;;;;;;;5.90;4.73;;;;;;;;;;5105172;28;20172;-89
2023/08/24 08:04:10;;;;;;;5.30;4.77;;;;;;;;;;5105655;28;20197;-90
2023/08/24 08:06:36;;;;;;;4.50;4.07;;;;;;;;;;5089877;28;20182;-87
2023/08/24 08:09:03;;;;;;;7.97;4.77;;;;;;;;;;5107716;28;20190;-90
2023/08/24 08:11:30;;;;;;;5.83;4.60;;;;;;;;;;5111179;28;20203;-90
2023/08/24 08:13:56;;;;;;;6.17;4.53;;;;;;;;;;5091060;28;20654;-90
2023/08/24 08:16:22;;;;;;;6.00;4.20;;;;;;;;;;5097869;28;20176;-89
2023/08/24 08:18:48;;;;;;;4.47;4.07;;;;;;;;;;5084675;28;20200;-89
2023/08/24 08:21:19;;;;;;;4.73;4.17;;;;;;;;;;5108717;28;20203;-87
2023/08/24 08:23:46;;;;;;;5.83;3.60;;;;;;;;;;5099851;28;20164;-88
2023/08/24 08:26:16;;;;;;;4.57;4.10;;;;;;;;;;5085641;28;20222;-88
2023/08/24 08:28:42;;;;;;;4.57;3.93;;;;;;;;;;5105646;28;20196;-90
2023/08/24 08:31:08;;;;;;;4.40;4.00;;;;;;;;;;5098208;28;20207;-89
2023/08/24 08:33:34;;;;;;;5.43;3.73;;;;;;;;;;5108027;28;20168;-90
2023/08/24 08:36:00;;;;;;;4.73;3.63;;;;;;;;;;5102100;28;20196;-89
2023/08/24 08:38:26;;;;;;;6.03;3.70;;;;;;;;;;5097687;28;20547;-91
2023/08/24 08:40:58;;;;;;;3.50;3.17;;;;;;;;;;5104664;28;20209;-87
2023/08/24 08:43:24;;;;;;;3.57;3.27;;;;;;;;;;5093503;28;20272;-89
2023/08/24 08:45:50;;;;;;;3.93;3.30;;;;;;;;;;5083514;28;20186;-90
2023/08/24 08:48:16;;;;;;;6.00;4.43;;;;;;;;;;5090779;28;20666;-88
2023/08/24 08:50:43;;;;;;;5.07;3.17;;;;;;;;;;5102981;28;20290;-90
2023/08/24 08:53:10;;;;;;;5.82;3.40;;;;;;;;;;5110966;28;20180;-90
2023/08/24 08:55:36;;;;;;;3.27;2.93;;;;;;;;;;5107256;28;20175;-91
2023/08/24 08:58:03;;;;;;;3.65;3.35;;;;;;;;;;5088157;28;20184;-87
2023/08/24 09:00:30;;;;;;;3.20;2.90;;;;;;;;;;5086909;28;20161;-88
2023/08/24 09:02:58;;;;;;;4.22;3.20;;;;;;;;;;5090756;28;20160;-87
2023/08/24 09:05:26;;;;;;;3.38;3.00;;;;;;;;;;5098227;28;20190;-89
2023/08/24 09:07:52;;;;;;;3.33;3.03;;;;;;;;;;5107082;22;20235;-59
2023/08/24 09:10:18;;;;;;;3.97;3.40;;;;;;;;;;5085635;28;20208;-59
2023/08/24 09:12:44;;;;;;;3.40;3.10;;;;;;;;;;5084124;28;20168;-60
2023/08/24 09:15:10;;;;;;;5.10;2.88;;;;;;;;;;5081996;28;20176;-60
2023/08/24 09:17:42;;;;;;;3.25;2.90;;;;;;;;;;5080773;28;20187;-60
2023/08/24 09:20:09;;;;;;;4.53;3.15;;;;;;;;;;5081897;28;21465;-59
2023/08/24 09:22:41;;;;;;;3.88;3.13;;;;;;;;;;5089035;28;20226;-60
2023/08/24 09:25:08;;;;;;;4.57;3.35;;;;;;;;;;5085196;28;20177;-60
2023/08/24 09:27:35;;;;;;;4.72;3.30;;;;;;;;;;5089112;28;20187;-59
2023/08/24 09:30:01;;;;;;;4.03;3.30;;;;;;;;;;5084628;28;20320;-60
2023/08/24 09:32:34;;;;;;;4.15;3.40;;;;;;;;;;5089429;28;20193;-59
2023/08/24 09:35:05;;;;;;;6.40;3.30;;;;;;;;;;5085351;28;20339;-58
2023/08/24 09:37:33;;;;;;;4.07;3.28;;;;;;;;;;5090338;28;20160;-60
2023/08/24 09:40:09;;;;;;;3.17;2.97;;;;;;;;;;5097500;28;20197;-60
2023/08/24 09:42:39;;;;;;;4.70;3.13;;;;;;;;;;5087201;28;20172;-61
2023/08/24 09:45:06;;;;;;;3.55;3.10;;;;;;;;;;5069969;28;20643;-60
2023/08/24 09:47:32;;;;;;;3.53;3.03;;;;;;;;;;5082098;28;20229;-62
2023/08/24 09:49:58;;;;;;;6.33;3.10;;;;;;;;;;5086274;28;20180;-61
2023/08/24 09:52:25;;;;;;;3.80;2.53;;;;;;;;;;5088713;28;20187;-61
2023/08/24 09:54:52;;;;;;;3.60;3.30;;;;;;;;;;5084788;28;20557;-62
2023/08/24 09:57:19;;;;;;;4.63;2.90;;;;;;;;;;5082033;28;20690;-61
2023/08/24 09:59:47;;;;;;;4.63;3.20;;;;;;;;;;5072833;28;20202;-60
2023/08/24 10:02:18;;;;;;;3.30;3.00;;;;;;;;;;5088104;28;20175;-60
2023/08/24 10:04:44;;;;;;;3.30;3.00;;;;;;;;;;5081281;28;20184;-60
2023/08/24 10:07:14;;;;;;;4.03;3.50;;;;;;;;;;5091448;28;20552;-61
2023/08/24 10:09:58;;;;;;;5.15;3.30;;;;;;;;;;5084870;28;20211;-61
2023/08/24 10:12:26;;;;;;;4.43;3.60;;;;;;;;;;5082099;28;20196;-60
2023/08/24 10:15:08;;;;;;;4.43;3.17;;;;;;;;;;5079482;28;20170;-59
2023/08/24 10:17:37;;;;;;;4.63;3.30;;;;;;;;;;5092523;28;20181;-60
2023/08/24 10:20:08;;;;;;;4.47;3.77;;;;;;;;;;5086965;28;20200;-61
2023/08/24 10:22:35;;;;;;;3.07;2.70;;;;;;;;;;5085318;28;20228;-61
2023/08/24 10:25:02;;;;;;;5.73;3.80;;;;;;;;;;5084775;28;20190;-61
2023/08/24 10:27:29;;;;;;;3.50;3.30;;;;;;;;;;5084705;28;20171;-61
2023/08/24 10:29:56;;;;;;;4.63;3.50;;;;;;;;;;5086352;28;20553;-61
2023/08/24 10:32:24;;;;;;;3.40;3.10;;;;;;;;;;5086533;28;20762;-60
2023/08/24 10:34:51;;;;;;;4.97;3.43;;;;;;;;;;5085310;28;20645;-61
2023/08/24 10:37:17;;;;;;;3.93;3.63;;;;;;;;;;5093601;28;20558;-60
2023/08/24 10:39:46;;;;;;;3.23;2.90;;;;;;;;;;5093478;28;21009;-60
2023/08/24 10:42:16;;;;;;;3.80;3.40;;;;;;;;;;5081679;28;20506;-60
2023/08/24 10:44:46;;;;;;;4.60;3.53;;;;;;;;;;5087792;28;20267;-59
2023/08/24 10:47:14;;;;;;;4.07;3.63;;;;;;;;;;5087356;28;20534;-56
2023/08/24 10:49:40;;;;;;;3.30;3.00;;;;;;;;;;5083103;28;20266;-57
2023/08/24 10:52:19;;;;;;;6.03;3.50;;;;;;;;;;5085924;28;20220;-57
2023/08/24 10:54:48;;;;;;;6.53;3.40;;;;;;;;;;5082971;28;20634;-56
2023/08/24 10:57:41;;;;;;;6.03;3.13;;;;;;;;;;5085030;28;20272;-56
2023/08/24 11:00:13;;;;;;;3.85;3.45;;;;;;;;;;5079687;28;20188;-57
2023/08/24 11:02:44;;;;;;;4.73;3.70;;;;;;;;;;5083702;28;20222;-58
2023/08/24 11:05:17;;;;;;;4.00;3.60;;;;;;;;;;5085131;28;20164;-57
2023/08/24 11:07:54;;;;;;;3.10;2.90;;;;;;;;;;5086367;28;20215;-58
2023/08/24 11:10:21;;;;;;;5.05;3.15;;;;;;;;;;5080556;28;20252;-58
2023/08/24 11:13:02;;;;;;;3.80;3.43;;;;;;;;;;5087593;28;20172;-56
2023/08/24 11:15:33;;;;;;;4.47;3.83;;;;;;;;;;5080879;28;20181;-56
2023/08/24 11:18:18;;;;;;;4.05;3.65;;;;;;;;;;5091199;28;20178;-57
2023/08/24 11:20:45;;;;;;;4.93;3.50;;;;;;;;;;5084445;28;20187;-58
2023/08/24 11:23:11;;;;;;;3.40;2.97;;;;;;;;;;5086486;28;20184;-57
2023/08/24 11:25:37;;;;;;;7.33;3.60;;;;;;;;;;5086266;28;20194;-56
2023/08/24 11:28:04;;;;;;;4.00;3.57;;;;;;;;;;5089391;28;20187;-57
2023/08/24 11:30:31;;;;;;;3.97;3.25;;;;;;;;;;5089820;28;20211;-57
2023/08/24 11:32:57;;;;;;;4.25;3.53;;;;;;;;;;5092209;28;20171;-56
2023/08/24 11:35:23;;;;;;;4.65;3.78;;;;;;;;;;5095716;28;20180;-57
2023/08/24 11:37:53;;;;;;;4.35;3.42;;;;;;;;;;5090532;28;20229;-56
2023/08/24 11:40:20;;;;;;;3.92;3.38;;;;;;;;;;5080344;28;20180;-58
2023/08/24 11:42:46;;;;;;;5.13;3.63;;;;;;;;;;5086277;28;20664;-57
2023/08/24 11:45:14;;;;;;;5.85;3.33;;;;;;;;;;5089724;28;20270;-56
2023/08/24 11:47:40;;;;;;;6.30;3.37;;;;;;;;;;5091776;28;20164;-56
2023/08/24 11:50:06;;;;;;;3.88;3.33;;;;;;;;;;5088986;28;20225;-56
2023/08/24 11:52:35;;;;;;;3.70;3.40;;;;;;;;;;5088377;28;20172;-62
2023/08/24 11:55:01;;;;;;;4.85;3.60;;;;;;;;;;5095158;28;20183;-57
2023/08/24 11:57:28;;;;;;;4.78;4.38;;;;;;;;;;5092253;28;20565;-57
2023/08/24 11:59:55;;;;;;;4.70;3.40;;;;;;;;;;5086412;28;20549;-57
2023/08/24 12:02:22;;;;;;;4.90;4.47;;;;;;;;;;5089271;28;20183;-57
2023/08/24 12:04:49;;;;;;;5.97;3.90;;;;;;;;;;5087848;28;20190;-57
2023/08/24 12:07:17;;;;;;;4.00;3.67;;;;;;;;;;5085389;28;20228;-57
2023/08/24 12:09:43;;;;;;;3.93;3.30;;;;;;;;;;5088079;28;20272;-57
2023/08/24 12:12:15;;;;;;;5.25;3.58;;;;;;;;;;5086861;28;20226;-58
2023/08/24 12:14:45;;;;;;;5.73;4.00;;;;;;;;;;5088442;28;20164;-58
2023/08/24 12:17:11;;;;;;;5.80;3.97;;;;;;;;;;5088851;28;20691;-58
2023/08/24 12:19:39;;;;;;;4.40;3.77;;;;;;;;;;5086370;28;20237;-58
2023/08/24 12:22:05;;;;;;;4.35;3.65;;;;;;;;;;5088490;28;20188;-59
2023/08/24 12:24:31;;;;;;;3.78;3.17;;;;;;;;;;5089662;28;20172;-55
2023/08/24 12:26:59;;;;;;;5.72;3.67;;;;;;;;;;5087807;28;20547;-56
2023/08/24 12:29:28;;;;;;;4.95;3.88;;;;;;;;;;5085579;28;20275;-56
2023/08/24 12:31:58;;;;;;;5.90;4.35;;;;;;;;;;5089654;28;20219;-57
2023/08/24 12:34:24;;;;;;;6.68;4.38;;;;;;;;;;5086415;28;20542;-56
2023/08/24 12:36:51;;;;;;;7.93;4.10;;;;;;;;;;5084796;28;20172;-56
2023/08/24 12:39:17;;;;;;;4.43;4.03;;;;;;;;;;5085581;28;20191;-59
2023/08/24 12:41:43;;;;;;;5.45;3.47;;;;;;;;;;5084732;28;20180;-57
2023/08/24 12:44:09;;;;;;;4.70;3.92;;;;;;;;;;5091524;28;20176;-57
2023/08/24 12:46:35;;;;;;;4.07;3.67;;;;;;;;;;5087860;28;20205;-57
2023/08/24 12:49:02;;;;;;;8.63;5.22;;;;;;;;;;5087750;28;20555;-57
2023/08/24 12:51:28;;;;;;;6.53;4.47;;;;;;;;;;5086124;28;20721;-57
2023/08/24 12:53:54;;;;;;;4.88;4.38;;;;;;;;;;5085729;28;20253;-56
2023/08/24 12:56:20;;;;;;;5.17;4.43;;;;;;;;;;5093539;28;20626;-56
2023/08/24 12:58:46;;;;;;;8.63;4.10;;;;;;;;;;5089870;28;20241;-55
2023/08/24 13:01:12;;;;;;;6.00;4.03;;;;;;;;;;5086511;28;20647;-56
2023/08/24 13:03:39;;;;;;;4.43;3.80;;;;;;;;;;5088913;28;20199;-57
2023/08/24 13:06:05;;;;;;;4.77;3.60;;;;;;;;;;5088139;28;20179;-57
2023/08/24 13:08:32;;;;;;;4.53;4.13;;;;;;;;;;5088096;28;20623;-59
2023/08/24 13:10:58;;;;;;;4.97;3.63;;;;;;;;;;5081207;28;20243;-57
2023/08/24 13:13:25;;;;;;;7.97;4.03;;;;;;;;;;5086854;28;20175;-58
2023/08/24 13:15:51;;;;;;;8.50;3.77;;;;;;;;;;5090003;28;20164;-58
2023/08/24 13:18:18;;;;;;;7.20;4.13;;;;;;;;;;5084134;28;20179;-58
2023/08/24 13:20:44;;;;;;;7.60;3.80;;;;;;;;;;5087107;28;20752;-58
2023/08/24 13:23:10;;;;;;;4.30;3.90;;;;;;;;;;5086236;28;20176;-57
2023/08/24 13:25:36;;;;;;;9.33;4.03;;;;;;;;;;5085937;28;20549;-58
2023/08/24 13:28:02;;;;;;;6.70;4.20;;;;;;;;;;5086357;28;20183;-57
2023/08/24 13:30:28;;;;;;;5.67;3.80;;;;;;;;;;5081050;28;20553;-57
2023/08/24 13:32:55;;;;;;;8.60;3.90;;;;;;;;;;5079347;28;20543;-58
2023/08/24 13:35:21;;;;;;;8.00;3.53;;;;;;;;;;5086863;28;20203;-58
2023/08/24 13:37:48;;;;;;;5.10;3.80;;;;;;;;;;5092073;28;20172;-57
2023/08/24 13:40:14;;;;;;;7.87;4.60;;;;;;;;;;5085385;28;20572;-58
2023/08/24 13:42:40;;;;;;;8.97;4.03;;;;;;;;;;5086665;28;20211;-58
2023/08/24 13:45:06;;;;;;;5.00;3.73;;;;;;;;;;5085714;28;20546;-58
2023/08/24 13:47:33;;;;;;;5.80;3.70;;;;;;;;;;5086328;28;20674;-59
2023/08/24 13:49:59;;;;;;;5.93;3.80;;;;;;;;;;5084030;28;20175;-57
2023/08/24 13:52:25;;;;;;;5.97;4.00;;;;;;;;;;5077929;28;20640;-57
2023/08/24 13:54:51;;;;;;;5.60;4.17;;;;;;;;;;5090165;28;20265;-58
2023/08/24 13:57:17;;;;;;;6.57;4.60;;;;;;;;;;5064900;28;20673;-58
2023/08/24 13:59:43;;;;;;;6.83;4.47;;;;;;;;;;5060681;28;20329;-57
2023/08/24 14:02:11;;;;;;;5.23;4.30;;;;;;;;;;5083391;28;20750;-57
2023/08/24 14:04:37;;;;;;;8.67;4.17;;;;;;;;;;5086293;28;20263;-57
2023/08/24 14:07:03;;;;;;;4.60;4.13;;;;;;;;;;5085146;28;20823;-58
2023/08/24 14:09:30;;;;;;;4.67;3.83;;;;;;;;;;5081791;28;20197;-58
2023/08/24 14:11:57;;;;;;;6.97;4.33;;;;;;;;;;5077677;28;20202;-58
2023/08/24 14:14:23;;;;;;;6.90;3.93;;;;;;;;;;5082430;28;20178;-58
2023/08/24 14:16:54;;;;;;;8.67;4.43;;;;;;;;;;5080567;28;20206;-56
2023/08/24 14:19:21;;;;;;;7.50;5.00;;;;;;;;;;5081731;28;20556;-58
2023/08/24 14:21:47;;;;;;;9.07;4.60;;;;;;;;;;5059180;28;20182;-57
2023/08/24 14:24:13;;;;;;;6.10;4.23;;;;;;;;;;5082163;28;20836;-58
2023/08/24 14:26:45;;;;;;;5.83;5.23;;;;;;;;;;5081120;28;20562;-56
2023/08/24 14:29:11;;;;;;;6.37;4.40;;;;;;;;;;5080915;28;20268;-57
2023/08/24 14:31:37;;;;;;;6.57;4.57;;;;;;;;;;5067786;28;20209;-56
2023/08/24 14:34:03;;;;;;;4.77;4.10;;;;;;;;;;5083801;28;20227;-57
2023/08/24 14:36:29;;;;;;;7.83;5.30;;;;;;;;;;5079784;28;20195;-57
2023/08/24 14:38:56;;;;;;;4.80;4.17;;;;;;;;;;5079608;28;20176;-57
2023/08/24 14:41:22;;;;;;;5.90;4.30;;;;;;;;;;5085459;28;20192;-57
2023/08/24 14:43:48;;;;;;;6.10;4.70;;;;;;;;;;5062156;28;20706;-57